sensor_id;sensor_type;location;lat;lon;timestamp;P1;durP1;ratioP1;P2;durP2;ratioP2
21089;SDS011;10703;51.020;6.128;2023-05-10T00:01:08;26.07;;;14.93;;
21089;SDS011;10703;51.020;6.128;2023-05-10T00:03:34;26.80;;;15.23;;
21089;SDS011;10703;51.020;6.128;2023-05-10T00:06:01;30.00;;;17.47;;
21089;SDS011;10703;51.020;6.128;2023-05-10T00:08:28;37.20;;;18.37;;
21089;SDS011;10703;51.020;6.128;2023-05-10T00:10:54;35.67;;;18.70;;
21089;SDS011;10703;51.020;6.128;2023-05-10T00:13:21;35.50;;;17.87;;
21089;SDS011;10703;51.020;6.128;2023-05-10T00:15:48;32.57;;;17.47;;
21089;SDS011;10703;51.020;6.128;2023-05-10T00:18:14;34.50;;;19.37;;
21089;SDS011;10703;51.020;6.128;2023-05-10T00:20:41;43.63;;;19.57;;
21089;SDS011;10703;51.020;6.128;2023-05-10T00:23:08;39.37;;;18.93;;
21089;SDS011;10703;51.020;6.128;2023-05-10T00:25:34;42.00;;;19.33;;
21089;SDS011;10703;51.020;6.128;2023-05-10T00:28:01;45.47;;;20.53;;
21089;SDS011;10703;51.020;6.128;2023-05-10T00:30:27;45.10;;;19.53;;
21089;SDS011;10703;51.020;6.128;2023-05-10T00:32:54;41.50;;;19.03;;
21089;SDS011;10703;51.020;6.128;2023-05-10T00:35:21;42.70;;;18.97;;
21089;SDS011;10703;51.020;6.128;2023-05-10T00:37:47;36.50;;;18.17;;
21089;SDS011;10703;51.020;6.128;2023-05-10T00:40:14;42.73;;;18.33;;
21089;SDS011;10703;51.020;6.128;2023-05-10T00:42:41;41.70;;;19.87;;
21089;SDS011;10703;51.020;6.128;2023-05-10T00:45:08;41.77;;;19.43;;
21089;SDS011;10703;51.020;6.128;2023-05-10T00:47:34;43.87;;;21.07;;
21089;SDS011;10703;51.020;6.128;2023-05-10T00:50:02;46.13;;;20.77;;
21089;SDS011;10703;51.020;6.128;2023-05-10T00:52:29;43.70;;;20.13;;
21089;SDS011;10703;51.020;6.128;2023-05-10T00:54:56;45.80;;;20.63;;
21089;SDS011;10703;51.020;6.128;2023-05-10T00:57:23;36.27;;;18.57;;
21089;SDS011;10703;51.020;6.128;2023-05-10T00:59:50;36.50;;;17.60;;
21089;SDS011;10703;51.020;6.128;2023-05-10T01:02:17;36.03;;;18.27;;
21089;SDS011;10703;51.020;6.128;2023-05-10T01:04:43;34.80;;;17.47;;
21089;SDS011;10703;51.020;6.128;2023-05-10T01:07:10;34.57;;;16.67;;
21089;SDS011;10703;51.020;6.128;2023-05-10T01:09:37;32.70;;;16.40;;
21089;SDS011;10703;51.020;6.128;2023-05-10T01:12:04;29.43;;;15.93;;
21089;SDS011;10703;51.020;6.128;2023-05-10T01:14:33;31.00;;;15.50;;
21089;SDS011;10703;51.020;6.128;2023-05-10T01:17:00;33.67;;;16.10;;
21089;SDS011;10703;51.020;6.128;2023-05-10T01:19:28;32.93;;;16.90;;
21089;SDS011;10703;51.020;6.128;2023-05-10T01:27:25;41.23;;;19.47;;
21089;SDS011;10703;51.020;6.128;2023-05-10T01:30:23;39.07;;;18.93;;
21089;SDS011;10703;51.020;6.128;2023-05-10T01:38:36;47.37;;;20.73;;
21089;SDS011;10703;51.020;6.128;2023-05-10T01:44:36;50.40;;;23.00;;
21089;SDS011;10703;51.020;6.128;2023-05-10T01:47:14;48.30;;;23.27;;
21089;SDS011;10703;51.020;6.128;2023-05-10T01:49:50;56.80;;;25.30;;
21089;SDS011;10703;51.020;6.128;2023-05-10T01:52:19;60.00;;;25.67;;
21089;SDS011;10703;51.020;6.128;2023-05-10T01:54:53;57.13;;;25.00;;
21089;SDS011;10703;51.020;6.128;2023-05-10T01:57:25;55.90;;;24.40;;
21089;SDS011;10703;51.020;6.128;2023-05-10T01:59:54;60.20;;;24.83;;
21089;SDS011;10703;51.020;6.128;2023-05-10T02:02:22;58.47;;;24.13;;
21089;SDS011;10703;51.020;6.128;2023-05-10T02:04:50;52.07;;;22.50;;
21089;SDS011;10703;51.020;6.128;2023-05-10T02:07:19;50.60;;;23.53;;
21089;SDS011;10703;51.020;6.128;2023-05-10T02:09:46;54.33;;;23.23;;
21089;SDS011;10703;51.020;6.128;2023-05-10T02:12:14;53.13;;;22.90;;
21089;SDS011;10703;51.020;6.128;2023-05-10T02:14:42;50.60;;;23.37;;
21089;SDS011;10703;51.020;6.128;2023-05-10T02:17:09;53.93;;;23.50;;
21089;SDS011;10703;51.020;6.128;2023-05-10T02:19:38;56.60;;;24.87;;
21089;SDS011;10703;51.020;6.128;2023-05-10T02:22:06;53.27;;;23.77;;
21089;SDS011;10703;51.020;6.128;2023-05-10T02:24:34;52.53;;;23.27;;
21089;SDS011;10703;51.020;6.128;2023-05-10T02:27:03;54.17;;;25.13;;
21089;SDS011;10703;51.020;6.128;2023-05-10T02:29:31;53.07;;;23.47;;
21089;SDS011;10703;51.020;6.128;2023-05-10T02:31:59;48.50;;;24.00;;
21089;SDS011;10703;51.020;6.128;2023-05-10T02:34:26;46.57;;;23.77;;
21089;SDS011;10703;51.020;6.128;2023-05-10T02:36:54;45.90;;;23.27;;
21089;SDS011;10703;51.020;6.128;2023-05-10T02:39:22;49.10;;;23.87;;
21089;SDS011;10703;51.020;6.128;2023-05-10T02:41:50;41.10;;;21.87;;
21089;SDS011;10703;51.020;6.128;2023-05-10T02:44:19;35.70;;;18.77;;
21089;SDS011;10703;51.020;6.128;2023-05-10T02:46:46;41.13;;;22.10;;
21089;SDS011;10703;51.020;6.128;2023-05-10T02:49:14;42.97;;;22.93;;
21089;SDS011;10703;51.020;6.128;2023-05-10T02:51:42;38.53;;;20.93;;
21089;SDS011;10703;51.020;6.128;2023-05-10T02:54:20;38.90;;;20.40;;
21089;SDS011;10703;51.020;6.128;2023-05-10T02:57:04;39.83;;;21.17;;
21089;SDS011;10703;51.020;6.128;2023-05-10T02:59:32;36.57;;;20.73;;
21089;SDS011;10703;51.020;6.128;2023-05-10T03:01:59;37.53;;;20.97;;
21089;SDS011;10703;51.020;6.128;2023-05-10T03:04:26;32.00;;;19.43;;
21089;SDS011;10703;51.020;6.128;2023-05-10T03:06:53;25.13;;;16.43;;
21089;SDS011;10703;51.020;6.128;2023-05-10T03:09:20;34.17;;;18.50;;
21089;SDS011;10703;51.020;6.128;2023-05-10T03:20:20;28.07;;;15.43;;
21089;SDS011;10703;51.020;6.128;2023-05-10T03:23:16;28.93;;;16.90;;
21089;SDS011;10703;51.020;6.128;2023-05-10T03:25:46;32.70;;;17.97;;
21089;SDS011;10703;51.020;6.128;2023-05-10T03:28:15;30.17;;;16.77;;
21089;SDS011;10703;51.020;6.128;2023-05-10T03:30:43;34.77;;;17.43;;
21089;SDS011;10703;51.020;6.128;2023-05-10T03:33:11;28.07;;;15.57;;
21089;SDS011;10703;51.020;6.128;2023-05-10T03:35:39;29.13;;;17.27;;
21089;SDS011;10703;51.020;6.128;2023-05-10T03:38:05;29.97;;;17.00;;
21089;SDS011;10703;51.020;6.128;2023-05-10T03:40:32;31.07;;;18.23;;
21089;SDS011;10703;51.020;6.128;2023-05-10T03:42:59;34.90;;;18.30;;
21089;SDS011;10703;51.020;6.128;2023-05-10T03:45:25;31.10;;;16.67;;
21089;SDS011;10703;51.020;6.128;2023-05-10T03:47:52;28.80;;;17.27;;
21089;SDS011;10703;51.020;6.128;2023-05-10T03:50:20;27.00;;;16.93;;
21089;SDS011;10703;51.020;6.128;2023-05-10T03:52:46;27.80;;;17.83;;
21089;SDS011;10703;51.020;6.128;2023-05-10T03:55:13;31.13;;;18.17;;
21089;SDS011;10703;51.020;6.128;2023-05-10T03:57:40;28.93;;;17.80;;
21089;SDS011;10703;51.020;6.128;2023-05-10T04:00:07;32.00;;;18.53;;
21089;SDS011;10703;51.020;6.128;2023-05-10T04:02:34;32.13;;;18.33;;
21089;SDS011;10703;51.020;6.128;2023-05-10T04:05:01;32.77;;;18.60;;
21089;SDS011;10703;51.020;6.128;2023-05-10T04:07:28;33.47;;;19.03;;
21089;SDS011;10703;51.020;6.128;2023-05-10T04:09:55;32.43;;;18.43;;
21089;SDS011;10703;51.020;6.128;2023-05-10T04:12:21;32.27;;;18.77;;
21089;SDS011;10703;51.020;6.128;2023-05-10T04:14:48;32.93;;;18.10;;
21089;SDS011;10703;51.020;6.128;2023-05-10T04:17:14;29.93;;;18.63;;
21089;SDS011;10703;51.020;6.128;2023-05-10T04:19:41;30.97;;;18.63;;
21089;SDS011;10703;51.020;6.128;2023-05-10T04:22:08;38.63;;;19.40;;
21089;SDS011;10703;51.020;6.128;2023-05-10T04:24:34;37.07;;;19.20;;
21089;SDS011;10703;51.020;6.128;2023-05-10T04:27:01;34.10;;;19.70;;
21089;SDS011;10703;51.020;6.128;2023-05-10T04:29:27;33.13;;;19.70;;
21089;SDS011;10703;51.020;6.128;2023-05-10T04:31:54;37.67;;;20.43;;
21089;SDS011;10703;51.020;6.128;2023-05-10T04:34:21;34.67;;;19.03;;
21089;SDS011;10703;51.020;6.128;2023-05-10T04:36:47;38.80;;;20.60;;
21089;SDS011;10703;51.020;6.128;2023-05-10T04:39:14;36.37;;;20.07;;
21089;SDS011;10703;51.020;6.128;2023-05-10T04:41:41;40.40;;;21.47;;
21089;SDS011;10703;51.020;6.128;2023-05-10T04:44:07;44.67;;;20.30;;
21089;SDS011;10703;51.020;6.128;2023-05-10T04:46:34;40.67;;;20.33;;
21089;SDS011;10703;51.020;6.128;2023-05-10T04:49:00;38.77;;;21.20;;
21089;SDS011;10703;51.020;6.128;2023-05-10T04:51:27;45.83;;;22.03;;
21089;SDS011;10703;51.020;6.128;2023-05-10T04:53:53;38.43;;;19.03;;
21089;SDS011;10703;51.020;6.128;2023-05-10T04:56:31;40.17;;;21.37;;
21089;SDS011;10703;51.020;6.128;2023-05-10T04:58:58;40.07;;;21.23;;
21089;SDS011;10703;51.020;6.128;2023-05-10T05:01:25;43.07;;;19.50;;
21089;SDS011;10703;51.020;6.128;2023-05-10T05:03:51;40.77;;;21.73;;
21089;SDS011;10703;51.020;6.128;2023-05-10T05:06:19;42.33;;;21.90;;
21089;SDS011;10703;51.020;6.128;2023-05-10T05:08:47;44.53;;;21.73;;
21089;SDS011;10703;51.020;6.128;2023-05-10T05:11:15;42.77;;;20.87;;
21089;SDS011;10703;51.020;6.128;2023-05-10T05:13:41;45.60;;;21.87;;
21089;SDS011;10703;51.020;6.128;2023-05-10T05:16:08;42.13;;;22.03;;
21089;SDS011;10703;51.020;6.128;2023-05-10T05:18:35;43.70;;;22.50;;
21089;SDS011;10703;51.020;6.128;2023-05-10T05:21:02;43.83;;;22.60;;
21089;SDS011;10703;51.020;6.128;2023-05-10T05:23:28;41.07;;;22.07;;
21089;SDS011;10703;51.020;6.128;2023-05-10T05:25:56;48.80;;;23.13;;
21089;SDS011;10703;51.020;6.128;2023-05-10T05:28:22;43.57;;;22.47;;
21089;SDS011;10703;51.020;6.128;2023-05-10T05:30:49;45.63;;;22.87;;
21089;SDS011;10703;51.020;6.128;2023-05-10T05:33:15;54.60;;;25.37;;
21089;SDS011;10703;51.020;6.128;2023-05-10T05:35:42;51.20;;;24.50;;
21089;SDS011;10703;51.020;6.128;2023-05-10T05:38:13;43.10;;;23.03;;
21089;SDS011;10703;51.020;6.128;2023-05-10T05:40:40;56.80;;;25.10;;
21089;SDS011;10703;51.020;6.128;2023-05-10T05:43:06;51.27;;;23.10;;
21089;SDS011;10703;51.020;6.128;2023-05-10T05:45:33;49.77;;;23.73;;
21089;SDS011;10703;51.020;6.128;2023-05-10T05:48:00;51.40;;;24.70;;
21089;SDS011;10703;51.020;6.128;2023-05-10T05:50:27;50.77;;;23.87;;
21089;SDS011;10703;51.020;6.128;2023-05-10T05:52:54;57.30;;;24.77;;
21089;SDS011;10703;51.020;6.128;2023-05-10T05:55:21;51.00;;;23.40;;
21089;SDS011;10703;51.020;6.128;2023-05-10T05:57:47;54.33;;;24.63;;
21089;SDS011;10703;51.020;6.128;2023-05-10T06:00:14;52.50;;;23.10;;
21089;SDS011;10703;51.020;6.128;2023-05-10T06:02:41;59.77;;;25.37;;
21089;SDS011;10703;51.020;6.128;2023-05-10T06:05:08;54.67;;;24.27;;
21089;SDS011;10703;51.020;6.128;2023-05-10T06:07:34;55.83;;;24.93;;
21089;SDS011;10703;51.020;6.128;2023-05-10T06:10:01;50.20;;;23.10;;
21089;SDS011;10703;51.020;6.128;2023-05-10T06:12:28;58.07;;;24.03;;
21089;SDS011;10703;51.020;6.128;2023-05-10T06:14:55;49.70;;;24.00;;
21089;SDS011;10703;51.020;6.128;2023-05-10T06:17:22;49.17;;;23.87;;
21089;SDS011;10703;51.020;6.128;2023-05-10T06:19:48;48.90;;;23.63;;
21089;SDS011;10703;51.020;6.128;2023-05-10T06:22:15;56.40;;;25.43;;
21089;SDS011;10703;51.020;6.128;2023-05-10T06:24:41;55.93;;;25.63;;
21089;SDS011;10703;51.020;6.128;2023-05-10T06:27:09;45.23;;;22.60;;
21089;SDS011;10703;51.020;6.128;2023-05-10T06:29:36;48.80;;;24.73;;
21089;SDS011;10703;51.020;6.128;2023-05-10T06:32:02;53.50;;;24.40;;
21089;SDS011;10703;51.020;6.128;2023-05-10T06:34:29;54.97;;;24.47;;
21089;SDS011;10703;51.020;6.128;2023-05-10T06:36:56;52.57;;;24.23;;
21089;SDS011;10703;51.020;6.128;2023-05-10T06:39:22;51.57;;;23.73;;
21089;SDS011;10703;51.020;6.128;2023-05-10T06:41:49;53.30;;;24.53;;
21089;SDS011;10703;51.020;6.128;2023-05-10T06:44:15;55.43;;;25.73;;
21089;SDS011;10703;51.020;6.128;2023-05-10T06:46:42;50.13;;;24.43;;
21089;SDS011;10703;51.020;6.128;2023-05-10T06:49:09;51.50;;;25.00;;
21089;SDS011;10703;51.020;6.128;2023-05-10T06:51:35;49.70;;;23.30;;
21089;SDS011;10703;51.020;6.128;2023-05-10T06:54:02;51.70;;;24.63;;
21089;SDS011;10703;51.020;6.128;2023-05-10T06:56:29;46.33;;;23.57;;
21089;SDS011;10703;51.020;6.128;2023-05-10T06:58:55;45.33;;;23.67;;
21089;SDS011;10703;51.020;6.128;2023-05-10T07:01:22;45.57;;;22.87;;
21089;SDS011;10703;51.020;6.128;2023-05-10T07:03:49;47.40;;;23.77;;
21089;SDS011;10703;51.020;6.128;2023-05-10T07:06:15;49.17;;;23.90;;
21089;SDS011;10703;51.020;6.128;2023-05-10T07:08:57;47.40;;;23.50;;
21089;SDS011;10703;51.020;6.128;2023-05-10T07:11:24;47.80;;;24.13;;
21089;SDS011;10703;51.020;6.128;2023-05-10T07:13:50;43.87;;;22.67;;
21089;SDS011;10703;51.020;6.128;2023-05-10T07:16:17;47.17;;;23.53;;
21089;SDS011;10703;51.020;6.128;2023-05-10T07:18:44;46.43;;;23.27;;
21089;SDS011;10703;51.020;6.128;2023-05-10T07:21:10;48.30;;;24.37;;
21089;SDS011;10703;51.020;6.128;2023-05-10T07:23:37;49.60;;;23.13;;
21089;SDS011;10703;51.020;6.128;2023-05-10T07:26:03;52.37;;;23.80;;
21089;SDS011;10703;51.020;6.128;2023-05-10T07:28:30;52.73;;;25.27;;
21089;SDS011;10703;51.020;6.128;2023-05-10T07:30:57;49.63;;;23.57;;
21089;SDS011;10703;51.020;6.128;2023-05-10T07:33:23;55.10;;;25.40;;
21089;SDS011;10703;51.020;6.128;2023-05-10T07:35:50;52.77;;;25.00;;
21089;SDS011;10703;51.020;6.128;2023-05-10T07:38:16;54.07;;;25.17;;
21089;SDS011;10703;51.020;6.128;2023-05-10T07:40:43;51.03;;;24.00;;
21089;SDS011;10703;51.020;6.128;2023-05-10T07:43:10;45.77;;;22.87;;
21089;SDS011;10703;51.020;6.128;2023-05-10T07:45:36;50.70;;;21.77;;
21089;SDS011;10703;51.020;6.128;2023-05-10T07:48:03;50.47;;;21.63;;
21089;SDS011;10703;51.020;6.128;2023-05-10T07:50:29;46.80;;;22.43;;
21089;SDS011;10703;51.020;6.128;2023-05-10T07:52:56;45.80;;;22.27;;
21089;SDS011;10703;51.020;6.128;2023-05-10T07:55:23;37.93;;;19.83;;
21089;SDS011;10703;51.020;6.128;2023-05-10T07:57:49;46.40;;;21.07;;
21089;SDS011;10703;51.020;6.128;2023-05-10T08:00:17;46.03;;;22.20;;
21089;SDS011;10703;51.020;6.128;2023-05-10T08:02:44;48.93;;;22.17;;
21089;SDS011;10703;51.020;6.128;2023-05-10T08:05:11;55.17;;;25.27;;
21089;SDS011;10703;51.020;6.128;2023-05-10T08:07:38;54.57;;;26.43;;
21089;SDS011;10703;51.020;6.128;2023-05-10T08:10:05;56.27;;;25.03;;
21089;SDS011;10703;51.020;6.128;2023-05-10T08:12:32;54.27;;;25.10;;
21089;SDS011;10703;51.020;6.128;2023-05-10T08:14:58;45.50;;;22.57;;
21089;SDS011;10703;51.020;6.128;2023-05-10T08:17:25;42.57;;;22.50;;
21089;SDS011;10703;51.020;6.128;2023-05-10T08:19:52;34.63;;;20.40;;
21089;SDS011;10703;51.020;6.128;2023-05-10T08:22:18;42.83;;;21.63;;
21089;SDS011;10703;51.020;6.128;2023-05-10T08:24:45;38.60;;;19.67;;
21089;SDS011;10703;51.020;6.128;2023-05-10T08:27:11;32.90;;;20.10;;
21089;SDS011;10703;51.020;6.128;2023-05-10T08:29:38;33.27;;;19.67;;
21089;SDS011;10703;51.020;6.128;2023-05-10T08:32:15;27.53;;;17.50;;
21089;SDS011;10703;51.020;6.128;2023-05-10T08:34:42;28.00;;;16.87;;
21089;SDS011;10703;51.020;6.128;2023-05-10T08:37:09;26.53;;;16.77;;
21089;SDS011;10703;51.020;6.128;2023-05-10T08:39:38;27.47;;;16.63;;
21089;SDS011;10703;51.020;6.128;2023-05-10T08:42:05;28.63;;;15.67;;
21089;SDS011;10703;51.020;6.128;2023-05-10T08:44:34;22.17;;;13.63;;
21089;SDS011;10703;51.020;6.128;2023-05-10T08:47:04;20.73;;;14.03;;
21089;SDS011;10703;51.020;6.128;2023-05-10T08:49:32;20.27;;;12.97;;
21089;SDS011;10703;51.020;6.128;2023-05-10T08:52:02;20.67;;;13.67;;
21089;SDS011;10703;51.020;6.128;2023-05-10T08:54:31;17.97;;;11.97;;
21089;SDS011;10703;51.020;6.128;2023-05-10T08:56:58;18.33;;;13.30;;
21089;SDS011;10703;51.020;6.128;2023-05-10T08:59:24;16.27;;;11.17;;
21089;SDS011;10703;51.020;6.128;2023-05-10T09:01:51;15.80;;;11.90;;
21089;SDS011;10703;51.020;6.128;2023-05-10T09:04:20;17.20;;;11.47;;
21089;SDS011;10703;51.020;6.128;2023-05-10T09:06:47;13.73;;;10.90;;
21089;SDS011;10703;51.020;6.128;2023-05-10T09:09:14;16.97;;;11.23;;
21089;SDS011;10703;51.020;6.128;2023-05-10T09:11:42;18.00;;;10.47;;
21089;SDS011;10703;51.020;6.128;2023-05-10T09:14:09;14.00;;;10.57;;
21089;SDS011;10703;51.020;6.128;2023-05-10T09:16:36;16.03;;;11.00;;
21089;SDS011;10703;51.020;6.128;2023-05-10T09:19:03;14.77;;;10.03;;
21089;SDS011;10703;51.020;6.128;2023-05-10T09:21:30;15.30;;;10.23;;
21089;SDS011;10703;51.020;6.128;2023-05-10T09:23:57;16.23;;;10.83;;
21089;SDS011;10703;51.020;6.128;2023-05-10T09:26:31;17.83;;;12.47;;
21089;SDS011;10703;51.020;6.128;2023-05-10T09:28:58;17.50;;;12.60;;
21089;SDS011;10703;51.020;6.128;2023-05-10T09:31:45;22.67;;;14.60;;
21089;SDS011;10703;51.020;6.128;2023-05-10T09:34:30;19.80;;;13.83;;
21089;SDS011;10703;51.020;6.128;2023-05-10T09:36:59;18.47;;;13.53;;
21089;SDS011;10703;51.020;6.128;2023-05-10T09:39:34;17.70;;;13.07;;
21089;SDS011;10703;51.020;6.128;2023-05-10T09:42:06;17.83;;;13.50;;
21089;SDS011;10703;51.020;6.128;2023-05-10T09:44:35;12.97;;;11.00;;
21089;SDS011;10703;51.020;6.128;2023-05-10T09:47:02;11.23;;;9.67;;
21089;SDS011;10703;51.020;6.128;2023-05-10T09:49:28;11.87;;;10.10;;
21089;SDS011;10703;51.020;6.128;2023-05-10T09:52:05;10.77;;;9.67;;
21089;SDS011;10703;51.020;6.128;2023-05-10T09:54:33;10.70;;;9.60;;
21089;SDS011;10703;51.020;6.128;2023-05-10T09:57:00;11.33;;;9.80;;
21089;SDS011;10703;51.020;6.128;2023-05-10T09:59:27;13.13;;;9.23;;
21089;SDS011;10703;51.020;6.128;2023-05-10T10:01:58;13.23;;;9.73;;
21089;SDS011;10703;51.020;6.128;2023-05-10T10:04:26;12.97;;;10.00;;
21089;SDS011;10703;51.020;6.128;2023-05-10T10:07:02;13.73;;;10.80;;
21089;SDS011;10703;51.020;6.128;2023-05-10T10:09:30;9.37;;;8.33;;
21089;SDS011;10703;51.020;6.128;2023-05-10T10:11:57;10.00;;;9.00;;
21089;SDS011;10703;51.020;6.128;2023-05-10T10:14:24;11.27;;;9.10;;
21089;SDS011;10703;51.020;6.128;2023-05-10T10:16:51;12.53;;;9.07;;
21089;SDS011;10703;51.020;6.128;2023-05-10T10:19:33;10.40;;;9.30;;
21089;SDS011;10703;51.020;6.128;2023-05-10T10:22:01;9.40;;;8.40;;
21089;SDS011;10703;51.020;6.128;2023-05-10T10:24:28;10.90;;;7.53;;
21089;SDS011;10703;51.020;6.128;2023-05-10T10:26:55;10.67;;;8.40;;
21089;SDS011;10703;51.020;6.128;2023-05-10T10:32:20;8.50;;;7.57;;
21089;SDS011;10703;51.020;6.128;2023-05-10T10:34:54;8.97;;;7.77;;
21089;SDS011;10703;51.020;6.128;2023-05-10T10:37:21;7.80;;;7.10;;
21089;SDS011;10703;51.020;6.128;2023-05-10T10:39:48;11.27;;;7.80;;
21089;SDS011;10703;51.020;6.128;2023-05-10T10:45:12;8.10;;;7.30;;
21089;SDS011;10703;51.020;6.128;2023-05-10T10:47:39;9.50;;;8.00;;
21089;SDS011;10703;51.020;6.128;2023-05-10T10:50:06;8.07;;;7.23;;
21089;SDS011;10703;51.020;6.128;2023-05-10T10:52:34;8.13;;;7.13;;
21089;SDS011;10703;51.020;6.128;2023-05-10T10:55:16;8.93;;;8.03;;
21089;SDS011;10703;51.020;6.128;2023-05-10T10:57:46;8.30;;;7.50;;
21089;SDS011;10703;51.020;6.128;2023-05-10T11:02:49;7.77;;;7.03;;
21089;SDS011;10703;51.020;6.128;2023-05-10T11:07:57;8.33;;;7.50;;
21089;SDS011;10703;51.020;6.128;2023-05-10T11:10:25;8.20;;;7.30;;
21089;SDS011;10703;51.020;6.128;2023-05-10T11:15:29;10.40;;;8.77;;
21089;SDS011;10703;51.020;6.128;2023-05-10T11:18:00;11.50;;;8.70;;
21089;SDS011;10703;51.020;6.128;2023-05-10T11:20:52;8.80;;;8.00;;
21089;SDS011;10703;51.020;6.128;2023-05-10T11:23:29;10.77;;;8.73;;
21089;SDS011;10703;51.020;6.128;2023-05-10T11:26:13;7.80;;;7.10;;
21089;SDS011;10703;51.020;6.128;2023-05-10T11:28:47;9.23;;;7.97;;
21089;SDS011;10703;51.020;6.128;2023-05-10T11:31:15;9.00;;;8.07;;
21089;SDS011;10703;51.020;6.128;2023-05-10T11:33:43;8.97;;;8.07;;
21089;SDS011;10703;51.020;6.128;2023-05-10T11:36:18;8.03;;;7.30;;
21089;SDS011;10703;51.020;6.128;2023-05-10T11:38:51;8.53;;;7.63;;
21089;SDS011;10703;51.020;6.128;2023-05-10T11:41:19;9.00;;;8.10;;
21089;SDS011;10703;51.020;6.128;2023-05-10T11:43:49;9.03;;;8.10;;
21089;SDS011;10703;51.020;6.128;2023-05-10T11:46:18;8.77;;;7.23;;
21089;SDS011;10703;51.020;6.128;2023-05-10T11:48:47;7.40;;;6.70;;
21089;SDS011;10703;51.020;6.128;2023-05-10T11:51:23;7.63;;;6.50;;
21089;SDS011;10703;51.020;6.128;2023-05-10T11:53:52;8.43;;;6.63;;
21089;SDS011;10703;51.020;6.128;2023-05-10T11:56:20;7.20;;;6.60;;
21089;SDS011;10703;51.020;6.128;2023-05-10T11:58:54;7.00;;;6.30;;
21089;SDS011;10703;51.020;6.128;2023-05-10T12:01:26;7.73;;;6.93;;
21089;SDS011;10703;51.020;6.128;2023-05-10T12:03:54;7.03;;;6.43;;
21089;SDS011;10703;51.020;6.128;2023-05-10T12:06:27;7.47;;;6.77;;
21089;SDS011;10703;51.020;6.128;2023-05-10T12:08:55;7.33;;;6.63;;
21089;SDS011;10703;51.020;6.128;2023-05-10T12:11:24;7.63;;;6.90;;
21089;SDS011;10703;51.020;6.128;2023-05-10T12:13:52;7.00;;;6.40;;
21089;SDS011;10703;51.020;6.128;2023-05-10T12:16:23;7.00;;;6.30;;
21089;SDS011;10703;51.020;6.128;2023-05-10T12:18:51;7.77;;;6.70;;
21089;SDS011;10703;51.020;6.128;2023-05-10T12:21:20;6.37;;;5.87;;
21089;SDS011;10703;51.020;6.128;2023-05-10T12:23:48;7.47;;;6.77;;
21089;SDS011;10703;51.020;6.128;2023-05-10T12:26:17;7.53;;;6.80;;
21089;SDS011;10703;51.020;6.128;2023-05-10T12:28:44;6.80;;;6.07;;
21089;SDS011;10703;51.020;6.128;2023-05-10T12:31:10;6.60;;;6.00;;
21089;SDS011;10703;51.020;6.128;2023-05-10T12:33:41;6.10;;;5.60;;
21089;SDS011;10703;51.020;6.128;2023-05-10T12:36:09;7.65;;;6.82;;
21089;SDS011;10703;51.020;6.128;2023-05-10T12:38:43;6.32;;;5.75;;
21089;SDS011;10703;51.020;6.128;2023-05-10T12:41:15;6.93;;;6.18;;
21089;SDS011;10703;51.020;6.128;2023-05-10T12:43:42;6.47;;;5.88;;
21089;SDS011;10703;51.020;6.128;2023-05-10T12:46:11;6.25;;;5.70;;
21089;SDS011;10703;51.020;6.128;2023-05-10T12:48:41;6.63;;;6.03;;
21089;SDS011;10703;51.020;6.128;2023-05-10T12:51:08;6.20;;;5.60;;
21089;SDS011;10703;51.020;6.128;2023-05-10T12:53:37;5.53;;;5.00;;
21089;SDS011;10703;51.020;6.128;2023-05-10T12:56:07;6.73;;;5.80;;
21089;SDS011;10703;51.020;6.128;2023-05-10T12:58:34;7.67;;;6.97;;
21089;SDS011;10703;51.020;6.128;2023-05-10T13:01:01;7.40;;;6.13;;
21089;SDS011;10703;51.020;6.128;2023-05-10T13:03:28;7.60;;;6.83;;
21089;SDS011;10703;51.020;6.128;2023-05-10T13:05:55;7.07;;;6.37;;
21089;SDS011;10703;51.020;6.128;2023-05-10T13:08:22;7.43;;;6.67;;
21089;SDS011;10703;51.020;6.128;2023-05-10T13:10:48;7.83;;;7.17;;
21089;SDS011;10703;51.020;6.128;2023-05-10T13:13:15;9.13;;;7.67;;
21089;SDS011;10703;51.020;6.128;2023-05-10T13:15:42;8.70;;;7.60;;
21089;SDS011;10703;51.020;6.128;2023-05-10T13:18:08;8.77;;;7.73;;
21089;SDS011;10703;51.020;6.128;2023-05-10T13:20:35;9.00;;;8.10;;
21089;SDS011;10703;51.020;6.128;2023-05-10T13:23:02;10.77;;;8.13;;
21089;SDS011;10703;51.020;6.128;2023-05-10T13:25:29;8.40;;;7.57;;
21089;SDS011;10703;51.020;6.128;2023-05-10T13:27:56;7.60;;;6.80;;
21089;SDS011;10703;51.020;6.128;2023-05-10T13:30:22;8.33;;;7.53;;
21089;SDS011;10703;51.020;6.128;2023-05-10T13:32:50;8.13;;;7.33;;
21089;SDS011;10703;51.020;6.128;2023-05-10T13:35:16;7.47;;;6.77;;
21089;SDS011;10703;51.020;6.128;2023-05-10T13:37:43;7.93;;;7.07;;
21089;SDS011;10703;51.020;6.128;2023-05-10T13:40:10;6.90;;;6.30;;
21089;SDS011;10703;51.020;6.128;2023-05-10T13:42:36;7.90;;;7.20;;
21089;SDS011;10703;51.020;6.128;2023-05-10T13:45:03;7.57;;;6.57;;
21089;SDS011;10703;51.020;6.128;2023-05-10T13:47:30;7.30;;;6.37;;
21089;SDS011;10703;51.020;6.128;2023-05-10T13:49:57;7.20;;;6.50;;
21089;SDS011;10703;51.020;6.128;2023-05-10T13:52:24;7.10;;;6.50;;
21089;SDS011;10703;51.020;6.128;2023-05-10T13:54:51;7.37;;;6.67;;
21089;SDS011;10703;51.020;6.128;2023-05-10T13:57:20;8.17;;;7.40;;
21089;SDS011;10703;51.020;6.128;2023-05-10T13:59:47;12.00;;;7.00;;
21089;SDS011;10703;51.020;6.128;2023-05-10T14:02:14;6.97;;;6.27;;
21089;SDS011;10703;51.020;6.128;2023-05-10T14:04:41;6.63;;;6.00;;
21089;SDS011;10703;51.020;6.128;2023-05-10T14:07:07;6.93;;;6.23;;
21089;SDS011;10703;51.020;6.128;2023-05-10T14:09:34;8.20;;;7.47;;
21089;SDS011;10703;51.020;6.128;2023-05-10T14:12:00;7.70;;;7.00;;
21089;SDS011;10703;51.020;6.128;2023-05-10T14:14:28;8.00;;;7.10;;
21089;SDS011;10703;51.020;6.128;2023-05-10T14:16:55;9.73;;;7.20;;
21089;SDS011;10703;51.020;6.128;2023-05-10T14:19:21;7.63;;;6.47;;
21089;SDS011;10703;51.020;6.128;2023-05-10T14:21:48;7.53;;;6.00;;
21089;SDS011;10703;51.020;6.128;2023-05-10T14:24:15;7.53;;;6.70;;
21089;SDS011;10703;51.020;6.128;2023-05-10T14:26:41;6.50;;;5.90;;
21089;SDS011;10703;51.020;6.128;2023-05-10T14:29:08;8.30;;;6.20;;
21089;SDS011;10703;51.020;6.128;2023-05-10T14:31:37;6.60;;;5.93;;
21089;SDS011;10703;51.020;6.128;2023-05-10T14:34:04;6.30;;;5.70;;
21089;SDS011;10703;51.020;6.128;2023-05-10T14:36:31;7.33;;;6.20;;
21089;SDS011;10703;51.020;6.128;2023-05-10T14:38:58;7.10;;;6.40;;
21089;SDS011;10703;51.020;6.128;2023-05-10T14:41:24;11.77;;;7.30;;
21089;SDS011;10703;51.020;6.128;2023-05-10T14:43:51;6.57;;;5.97;;
21089;SDS011;10703;51.020;6.128;2023-05-10T14:46:18;7.17;;;5.70;;
21089;SDS011;10703;51.020;6.128;2023-05-10T14:48:44;6.00;;;4.97;;
21089;SDS011;10703;51.020;6.128;2023-05-10T14:51:11;5.23;;;4.83;;
21089;SDS011;10703;51.020;6.128;2023-05-10T14:53:38;5.70;;;5.20;;
21089;SDS011;10703;51.020;6.128;2023-05-10T14:56:04;5.93;;;5.43;;
21089;SDS011;10703;51.020;6.128;2023-05-10T14:58:31;6.07;;;5.47;;
21089;SDS011;10703;51.020;6.128;2023-05-10T15:00:59;5.30;;;4.90;;
21089;SDS011;10703;51.020;6.128;2023-05-10T15:03:27;6.97;;;5.27;;
21089;SDS011;10703;51.020;6.128;2023-05-10T15:05:54;6.00;;;5.50;;
21089;SDS011;10703;51.020;6.128;2023-05-10T15:08:22;5.87;;;5.37;;
21089;SDS011;10703;51.020;6.128;2023-05-10T15:10:50;6.17;;;5.63;;
21089;SDS011;10703;51.020;6.128;2023-05-10T15:13:17;6.13;;;5.53;;